Time;durP1;ratioP1;P1;durP2;ratioP2;P2;SDS_P1;SDS_P2;PMS_P1;PMS_P2;Temp;Humidity;BMP_temperature;BMP_pressure;BME280_temperature;BME280_humidity;BME280_pressure;Samples;Min_cycle;Max_cycle;Signal;HPM_P1;HPM_P2
2022/12/21 00:02:04;;;;;;;;;11.00;9.00;;;;;13.10;100.00;100466.06;6229154;22;45671;-84
2022/12/21 00:04:30;;;;;;;;;10.67;9.00;;;;;13.14;100.00;100466.94;6256233;22;45271;-84
2022/12/21 00:06:56;;;;;;;;;12.00;9.33;;;;;13.16;100.00;100459.81;6230039;22;45375;-84
2022/12/21 00:09:23;;;;;;;;;10.00;9.33;;;;;13.20;100.00;100459.81;6230737;22;48175;-85
2022/12/21 00:11:49;;;;;;;;;12.33;12.33;;;;;13.21;100.00;100461.59;6257937;22;45392;-84
2022/12/21 00:14:15;;;;;;;;;12.00;12.00;;;;;13.20;100.00;100458.94;6228292;22;44854;-84
2022/12/21 00:16:42;;;;;;;;;9.00;9.00;;;;;13.18;100.00;100458.03;6255300;22;45199;-84
2022/12/21 00:19:11;;;;;;;;;9.67;8.00;;;;;13.17;100.00;100451.81;6257411;22;46265;-84
2022/12/21 00:21:37;;;;;;;;;15.67;11.00;;;;;13.25;100.00;100456.25;6257367;22;45345;-84
2022/12/21 00:24:03;;;;;;;;;9.33;8.33;;;;;13.21;100.00;100442.91;6259253;22;45340;-84
2022/12/21 00:26:32;;;;;;;;;13.00;12.33;;;;;13.22;100.00;100454.47;6261828;22;45402;-84
2022/12/21 00:28:59;;;;;;;;;12.00;8.00;;;;;13.24;100.00;100458.03;6261490;22;45101;-84
2022/12/21 00:31:30;;;;;;;;;13.00;10.00;;;;;13.26;100.00;100450.91;6235054;22;45411;-84
2022/12/21 00:33:57;;;;;;;;;12.33;10.33;;;;;13.30;100.00;100454.50;6229385;22;45397;-84
2022/12/21 00:36:25;;;;;;;;;13.67;12.00;;;;;13.31;100.00;100446.50;6227344;22;45050;-83
2022/12/21 00:38:51;;;;;;;;;13.00;13.00;;;;;13.29;100.00;100444.66;6226879;22;45112;-83
2022/12/21 00:41:20;;;;;;;;;10.33;7.33;;;;;13.30;100.00;100447.38;6225363;22;45273;-84
2022/12/21 00:43:46;;;;;;;;;12.67;9.33;;;;;13.28;100.00;100443.78;6226486;22;45401;-84
2022/12/21 00:46:32;;;;;;;;;13.00;11.00;;;;;13.28;100.00;100443.78;6225928;22;45285;-84
2022/12/21 00:48:59;;;;;;;;;11.00;11.00;;;;;13.33;100.00;100454.47;6227588;22;45397;-84
2022/12/21 00:51:28;;;;;;;;;11.00;10.00;;;;;13.29;100.00;100448.28;6232159;22;46440;-84
2022/12/21 00:53:55;;;;;;;;;13.67;12.67;;;;;13.25;100.00;100438.47;6234553;22;45406;-83
2022/12/21 00:56:21;;;;;;;;;10.33;10.33;;;;;13.19;100.00;100438.47;6234151;22;45363;-84
2022/12/21 00:58:48;;;;;;;;;9.00;9.00;;;;;13.18;100.00;100452.69;6231665;22;46723;-83
2022/12/21 01:01:22;;;;;;;;;12.00;11.33;;;;;13.17;100.00;100456.28;6231621;22;45702;-84
2022/12/21 01:03:48;;;;;;;;;10.67;9.33;;;;;13.17;100.00;100453.59;6234751;22;45530;-84
2022/12/21 01:06:17;;;;;;;;;9.00;7.00;;;;;13.21;100.00;100458.06;6232566;22;45258;-83
2022/12/21 01:08:42;;;;;;;;;8.33;8.00;;;;;13.26;100.00;100463.38;6230947;22;47987;-83
2022/12/21 01:11:11;;;;;;;;;10.00;10.00;;;;;13.24;100.00;100458.03;6231084;22;45803;-83
2022/12/21 01:13:36;;;;;;;;;8.00;6.33;;;;;13.24;100.00;100452.69;6230922;22;44806;-83
2022/12/21 01:19:23;;;;;;;;;10.67;9.00;;;;;13.24;100.00;100458.03;6232715;22;45684;-84
2022/12/21 01:21:49;;;;;;;;;6.67;6.67;;;;;13.25;100.00;100457.16;6232865;22;45297;-84
2022/12/21 01:24:15;;;;;;;;;9.00;6.00;;;;;13.27;100.00;100457.13;6230571;22;45390;-84
2022/12/21 01:26:46;;;;;;;;;9.00;9.00;;;;;13.29;100.00;100461.63;6234951;22;45408;-84
2022/12/21 01:29:13;;;;;;;;;6.67;5.67;;;;;13.33;100.00;100465.16;6233007;22;45426;-84
2022/12/21 01:31:39;;;;;;;;;9.00;9.00;;;;;13.24;100.00;100457.16;6232799;22;45396;-83
2022/12/21 01:34:05;;;;;;;;;6.67;5.67;;;;;13.30;100.00;100479.41;6234817;22;45454;-83
2022/12/21 01:36:31;;;;;;;;;9.33;7.00;;;;;13.33;100.00;100482.09;6236261;22;44717;-83
2022/12/21 01:38:57;;;;;;;;;7.33;7.33;;;;;13.33;100.00;100471.41;6235428;22;46936;-84
2022/12/21 01:41:27;;;;;;;;;9.00;9.00;;;;;13.36;100.00;100478.53;6263909;22;45400;-84
2022/12/21 01:44:01;;;;;;;;;14.00;11.00;;;;;13.37;100.00;100473.19;6237137;22;44819;-84
2022/12/21 01:46:44;;;;;;;;;14.00;10.00;;;;;13.34;100.00;100482.97;6262229;22;45354;-84
2022/12/21 01:49:21;;;;;;;;;5.00;5.00;;;;;13.28;100.00;100501.66;6234258;22;47745;-85
2022/12/21 01:51:56;;;;;;;;;3.00;3.00;;;;;13.19;100.00;100505.22;6234941;22;45315;-84
2022/12/21 01:54:33;;;;;;;;;6.00;6.00;;;;;13.14;100.00;100515.00;6262090;22;45534;-84
2022/12/21 01:57:02;;;;;;;;;4.50;2.75;;;;;13.01;100.00;100507.00;6232215;22;45530;-84
2022/12/21 01:59:39;;;;;;;;;1.75;1.75;;;;;12.93;100.00;100515.91;6232919;22;46794;-84
2022/12/21 02:02:11;;;;;;;;;1.00;1.00;;;;;12.81;100.00;100517.66;6229572;22;44753;-84
2022/12/21 02:04:38;;;;;;;;;1.00;1.00;;;;;12.74;100.00;100525.66;6259786;22;45588;-85
2022/12/21 02:07:03;;;;;;;;;2.00;2.00;;;;;12.64;100.00;100516.72;6260773;22;44808;-84
2022/12/21 02:09:33;;;;;;;;;1.00;1.00;;;;;12.57;100.00;100523.84;6235279;22;47371;-83
2022/12/21 02:12:03;;;;;;;;;1.75;1.75;;;;;12.56;100.00;100538.09;6261952;22;44748;-84
2022/12/21 02:14:32;;;;;;;;;1.00;1.00;;;;;12.48;100.00;100526.50;6233422;22;44796;-85
2022/12/21 02:17:04;;;;;;;;;1.00;1.00;;;;;12.51;100.00;100523.81;6233387;22;45410;-84
2022/12/21 02:20:21;;;;;;;;;1.00;1.00;;;;;12.43;100.00;100520.25;6260596;22;46550;-84
2022/12/21 02:23:14;;;;;;;;;1.00;1.00;;;;;12.33;100.00;100508.66;6260951;22;45322;-85
2022/12/21 02:25:51;;;;;;;;;1.00;1.00;;;;;12.26;100.00;100506.88;6231939;22;45280;-85
2022/12/21 02:29:13;;;;;;;;;1.00;1.00;;;;;12.18;100.00;100504.16;6233108;22;44849;-85
2022/12/21 02:32:09;;;;;;;;;1.00;1.00;;;;;12.12;100.00;100509.47;6140212;23;46919;-83
2022/12/21 02:34:51;;;;;;;;;1.00;1.00;;;;;12.07;100.00;100516.56;6139210;23;46348;-84
2022/12/21 02:37:25;;;;;;;;;0.50;0.50;;;;;11.96;100.00;100503.19;6169192;23;44783;-83
2022/12/21 02:40:12;;;;;;;;;3.75;2.00;;;;;11.96;100.00;100508.53;6144058;23;45533;-83
2022/12/21 02:46:03;;;;;;;;;2.00;2.00;;;;;11.86;100.00;100511.13;6169449;23;45353;-84
2022/12/21 02:48:43;;;;;;;;;1.00;1.00;;;;;11.77;100.00;100510.16;6166669;23;45386;-83
2022/12/21 02:51:17;;;;;;;;;0.00;0.00;;;;;11.70;100.00;100515.47;6168170;23;45556;-84
2022/12/21 02:53:45;;;;;;;;;0.50;0.50;;;;;11.65;100.00;100510.09;6142041;23;47207;-84
2022/12/21 02:56:17;;;;;;;;;1.00;1.00;;;;;11.70;100.00;100526.13;6165733;23;44871;-84
2022/12/21 02:58:43;;;;;;;;;2.75;2.00;;;;;11.66;100.00;100524.31;6166386;23;44891;-84
2022/12/21 03:01:29;;;;;;;;;2.00;2.00;;;;;11.63;100.00;100525.16;6171300;22;45844;-83
2022/12/21 03:04:06;;;;;;;;;1.00;1.00;;;;;11.59;100.00;100537.59;6227964;22;46984;-84
2022/12/21 03:06:59;;;;;;;;;1.50;1.50;;;;;11.56;100.00;100518.03;6229569;22;45310;-84
2022/12/21 03:09:35;;;;;;;;;1.50;1.25;;;;;11.54;100.00;100535.78;6229715;22;44769;-85
2022/12/21 03:12:12;;;;;;;;;1.00;1.00;;;;;11.51;100.00;100535.75;6226984;22;45444;-84
2022/12/21 03:15:15;;;;;;;;;0.00;0.00;;;;;11.51;100.00;100535.75;6227159;22;46865;-85
2022/12/21 03:18:11;;;;;;;;;2.00;1.00;;;;;11.48;100.00;100535.75;6229687;22;44696;-83
2022/12/21 03:21:10;;;;;;;;;0.25;0.25;;;;;11.36;100.00;100526.78;6227048;22;45379;-84
2022/12/21 03:23:36;;;;;;;;;1.00;1.00;;;;;11.39;100.00;100529.47;6229789;22;45196;-83
2022/12/21 03:26:28;;;;;;;;;1.00;1.00;;;;;11.29;100.00;100522.28;6227482;22;47715;-84
2022/12/21 03:28:57;;;;;;;;;1.00;1.00;;;;;11.34;100.00;100535.63;6232176;22;45429;-83
2022/12/21 03:31:29;;;;;;;;;1.00;1.00;;;;;11.29;100.00;100527.63;6230433;22;44804;-83
2022/12/21 03:34:03;;;;;;;;;0.00;0.00;;;;;11.21;100.00;100506.25;6245134;22;44725;-84
2022/12/21 03:36:39;;;;;;;;;0.00;0.00;;;;;11.26;100.00;100527.56;6235791;22;45307;-84
2022/12/21 03:39:10;;;;;;;;;0.75;0.75;;;;;11.29;100.00;100532.94;6234943;22;45321;-84
2022/12/21 03:42:08;;;;;;;;;1.00;0.00;;;;;11.25;100.00;100530.22;6234541;22;45329;-83
2022/12/21 03:44:52;;;;;;;;;1.00;1.00;;;;;11.39;100.00;100540.13;6258377;22;45238;-83
2022/12/21 03:47:27;;;;;;;;;0.25;0.25;;;;;11.41;100.00;100529.44;6259635;22;45357;-83
2022/12/21 03:50:08;;;;;;;;;0.00;0.00;;;;;11.44;100.00;100533.94;6262581;22;45349;-83
2022/12/21 03:52:46;;;;;;;;;0.00;0.00;;;;;11.34;100.00;100528.53;6264201;22;45380;-83
2022/12/21 03:55:21;;;;;;;;;0.00;0.00;;;;;11.42;100.00;100533.91;6263506;22;45331;-85
2022/12/21 03:57:47;;;;;;;;;0.00;0.00;;;;;11.41;100.00;100545.44;6233313;22;46968;-85
2022/12/21 04:00:13;;;;;;;;;0.00;0.00;;;;;11.38;100.00;100543.66;6258646;22;45594;-85
2022/12/21 04:02:48;;;;;;;;;0.00;0.00;;;;;11.39;100.00;100537.47;6233264;22;45403;-84
2022/12/21 04:05:30;;;;;;;;;0.75;0.75;;;;;11.34;100.00;100539.19;6234056;22;45216;-85
2022/12/21 04:07:56;;;;;;;;;1.00;1.00;;;;;11.39;100.00;100547.19;6259513;22;46736;-85
2022/12/21 04:10:23;;;;;;;;;0.00;0.00;;;;;11.38;100.00;100550.75;6258032;22;45427;-85
2022/12/21 04:12:48;;;;;;;;;0.25;0.25;;;;;11.32;100.00;100532.06;6257738;22;45319;-84
2022/12/21 04:15:18;;;;;;;;;0.50;0.50;;;;;11.35;100.00;100540.97;6259414;22;45266;-85
2022/12/21 04:17:47;;;;;;;;;1.00;1.00;;;;;11.32;100.00;100532.94;6231201;22;46985;-84
2022/12/21 04:20:17;;;;;;;;;0.00;0.00;;;;;11.37;100.00;100547.19;6260913;22;45229;-84
2022/12/21 04:28:30;;;;;;;;;0.75;0.75;;;;;11.43;100.00;100559.66;6258842;22;45421;-85
2022/12/21 04:30:57;;;;;;;;;0.00;0.00;;;;;11.44;100.00;100550.78;6232409;22;45326;-84
2022/12/21 04:33:25;;;;;;;;;0.00;0.00;;;;;11.51;100.00;100565.03;6232324;22;45470;-84
2022/12/21 04:38:37;;;;;;;;;1.00;1.00;;;;;11.52;100.00;100569.50;6258151;22;44981;-85
2022/12/21 04:41:03;;;;;;;;;0.25;0.00;;;;;11.48;100.00;100571.25;6259143;22;45762;-85
2022/12/21 04:43:37;;;;;;;;;1.00;1.00;;;;;11.49;100.00;100570.38;6231378;22;44728;-84
2022/12/21 04:46:12;;;;;;;;;0.25;0.25;;;;;11.46;100.00;100569.47;6232357;22;45231;-84
2022/12/21 04:48:38;;;;;;;;;0.25;0.25;;;;;11.40;100.00;100559.63;6230703;22;46091;-84
2022/12/21 04:51:09;;;;;;;;;1.00;1.00;;;;;11.33;100.00;100561.38;6230375;22;45291;-84
2022/12/21 04:53:35;;;;;;;;;1.00;1.00;;;;;11.30;100.00;100568.44;6257084;22;45461;-84
2022/12/21 04:56:01;;;;;;;;;0.25;0.25;;;;;11.21;100.00;100563.94;6256228;22;45270;-84
2022/12/21 04:58:26;;;;;;;;;0.00;0.00;;;;;11.17;100.00;100563.00;6230796;22;46754;-84
2022/12/21 05:00:52;;;;;;;;;0.25;0.25;;;;;11.10;100.00;100573.59;6230921;22;45229;-85
2022/12/21 05:03:19;;;;;;;;;1.00;0.00;;;;;10.99;100.00;100563.72;6230507;22;45245;-84
2022/12/21 05:05:46;;;;;;;;;2.25;1.00;;;;;10.95;100.00;100577.00;6259666;22;45207;-84
2022/12/21 05:08:12;;;;;;;;;0.00;0.00;;;;;10.90;100.00;100582.25;6231721;22;47886;-84
2022/12/21 05:10:38;;;;;;;;;2.00;2.00;;;;;10.87;100.00;100581.34;6259726;22;45712;-84
2022/12/21 05:13:04;;;;;;;;;2.00;0.75;;;;;10.85;100.00;100581.34;6261405;22;45420;-83
2022/12/21 05:15:30;;;;;;;;;2.00;2.00;;;;;10.82;100.00;100578.63;6260664;22;45356;-84
2022/12/21 05:17:57;;;;;;;;;0.50;0.50;;;;;10.78;100.00;100580.34;6233054;22;45227;-83
2022/12/21 05:20:22;;;;;;;;;1.00;0.00;;;;;10.80;100.00;100591.03;6232035;22;45295;-84
2022/12/21 05:22:48;;;;;;;;;1.00;1.00;;;;;10.78;100.00;100584.78;6259686;22;45410;-84
2022/12/21 05:29:19;;;;;;;;;1.00;1.00;;;;;10.73;100.00;100591.84;6261999;22;45553;-84
2022/12/21 05:31:45;;;;;;;;;0.00;0.00;;;;;10.66;100.00;100579.34;6235343;22;45342;-84
2022/12/21 05:34:10;;;;;;;;;0.00;0.00;;;;;10.59;100.00;100573.94;6228908;22;45346;-84
2022/12/21 05:36:35;;;;;;;;;0.00;0.00;;;;;10.66;100.00;100585.53;6231676;22;45368;-84
2022/12/21 05:39:01;;;;;;;;;0.75;0.75;;;;;10.60;100.00;100577.50;6228958;22;46792;-85
2022/12/21 05:42:22;;;;;;;;;1.25;1.25;;;;;10.64;100.00;100575.78;6228308;22;45707;-84
2022/12/21 05:44:48;;;;;;;;;1.00;1.00;;;;;10.60;100.00;100589.06;6228970;22;45254;-84
2022/12/21 05:47:13;;;;;;;;;0.25;0.25;;;;;10.57;100.00;100586.34;6254502;22;45393;-84
2022/12/21 05:49:39;;;;;;;;;0.25;0.25;;;;;10.52;100.00;100580.09;6228209;22;48147;-84
2022/12/21 05:52:04;;;;;;;;;1.50;1.50;;;;;10.55;100.00;100582.78;6228817;22;45264;-84
2022/12/21 05:54:30;;;;;;;;;1.00;1.00;;;;;10.52;100.00;100593.38;6231318;22;44674;-85
2022/12/21 05:56:56;;;;;;;;;1.25;0.50;;;;;10.49;100.00;100582.69;6232074;22;45340;-84
2022/12/21 05:59:21;;;;;;;;;1.25;0.75;;;;;10.54;100.00;100585.41;6228019;22;46513;-84
2022/12/21 06:01:53;;;;;;;;;1.75;1.75;;;;;10.54;100.00;100596.03;6230981;22;45135;-84
2022/12/21 06:04:19;;;;;;;;;0.00;0.00;;;;;10.47;100.00;100568.50;6230507;22;45358;-84
2022/12/21 06:06:47;;;;;;;;;0.75;0.75;;;;;10.48;100.00;100585.34;6231006;22;45339;-84
2022/12/21 06:13:18;;;;;;;;;1.25;1.25;;;;;10.47;100.00;100595.09;6231466;22;45436;-85
2022/12/21 06:15:44;;;;;;;;;1.00;1.00;;;;;10.44;100.00;100592.38;6232940;22;45306;-84
2022/12/21 06:18:10;;;;;;;;;0.50;0.50;;;;;10.39;100.00;100587.00;6232203;22;44798;-85
2022/12/21 06:20:35;;;;;;;;;2.00;1.00;;;;;10.40;100.00;100594.13;6231778;22;48211;-84
2022/12/21 06:23:01;;;;;;;;;2.00;2.00;;;;;10.41;100.00;100601.22;6232503;22;45300;-84
2022/12/21 06:25:26;;;;;;;;;1.75;1.50;;;;;10.38;100.00;100597.63;6231814;22;44784;-84
2022/12/21 06:27:53;;;;;;;;;2.00;2.00;;;;;10.28;100.00;100593.94;6231462;22;45409;-84
2022/12/21 06:30:19;;;;;;;;;3.00;2.00;;;;;10.34;100.00;100610.00;6232586;22;45336;-83
2022/12/21 06:32:45;;;;;;;;;2.00;2.00;;;;;10.30;100.00;100607.25;6231614;22;45181;-83
2022/12/21 06:35:10;;;;;;;;;1.25;1.25;;;;;10.31;100.00;100614.38;6256275;22;44760;-84
2022/12/21 06:37:37;;;;;;;;;3.00;3.00;;;;;10.28;100.00;100619.59;6235037;22;45339;-83
2022/12/21 06:40:03;;;;;;;;;3.00;1.50;;;;;10.21;100.00;100619.53;6234579;22;47291;-83
2022/12/21 06:42:28;;;;;;;;;1.75;1.75;;;;;10.25;100.00;100619.59;6261351;22;44774;-84
2022/12/21 06:44:53;;;;;;;;;1.25;1.25;;;;;10.19;100.00;100621.28;6234119;22;45415;-83
2022/12/21 06:47:22;;;;;;;;;1.75;1.75;;;;;10.13;100.00;100615.00;6231790;22;45806;-83
2022/12/21 06:49:48;;;;;;;;;2.00;2.00;;;;;10.14;100.00;100623.00;6233143;22;45366;-85
2022/12/21 06:52:14;;;;;;;;;4.00;3.00;;;;;10.13;100.00;100630.94;6234125;22;45268;-84
2022/12/21 06:54:40;;;;;;;;;3.33;3.33;;;;;9.96;100.00;100605.03;6257011;22;45313;-84
2022/12/21 06:57:05;;;;;;;;;1.33;1.00;;;;;9.96;100.00;100610.34;6233574;22;45514;-84
2022/12/21 06:59:35;;;;;;;;;1.00;1.00;;;;;10.07;100.00;100623.75;6233631;22;46133;-84
2022/12/21 07:02:01;;;;;;;;;7.33;4.00;;;;;9.89;100.00;100597.81;6258565;22;45419;-84
2022/12/21 07:04:29;;;;;;;;;2.67;2.67;;;;;9.97;100.00;100617.41;6259917;22;45313;-84
2022/12/21 07:07:02;;;;;;;;;2.50;2.50;;;;;9.94;100.00;100630.69;6234653;22;44864;-84
2022/12/21 07:09:28;;;;;;;;;3.00;3.00;;;;;9.80;100.00;100617.19;6231164;22;45220;-84
2022/12/21 07:11:59;;;;;;;;;4.00;4.00;;;;;9.58;100.00;100581.44;6262016;22;45269;-84
2022/12/21 07:14:25;;;;;;;;;4.00;4.00;;;;;9.65;100.00;100601.00;6261530;22;45263;-84
2022/12/21 07:20:12;;;;;;;;;4.00;4.00;;;;;9.74;100.00;100627.72;6261630;22;45285;-84
2022/12/21 07:22:38;;;;;;;;;7.00;5.00;;;;;9.50;100.00;100591.03;6234153;22;44776;-84
2022/12/21 07:25:04;;;;;;;;;6.67;3.67;;;;;9.39;100.00;100572.31;6235187;22;45423;-84
2022/12/21 07:27:30;;;;;;;;;5.00;4.00;;;;;9.54;100.00;100597.31;6236679;22;45375;-84
2022/12/21 07:29:55;;;;;;;;;4.00;4.00;;;;;9.50;100.00;100595.47;6234430;22;45381;-84
2022/12/21 07:32:21;;;;;;;;;3.67;3.67;;;;;9.76;100.00;100636.59;6234071;22;45331;-84
2022/12/21 07:34:55;;;;;;;;;5.00;4.67;;;;;9.74;100.00;100638.34;6260838;22;45383;-84
2022/12/21 07:37:24;;;;;;;;;5.00;5.00;;;;;9.62;100.00;100630.19;6237564;22;45807;-84
2022/12/21 07:39:50;;;;;;;;;7.00;5.00;;;;;9.45;100.00;100607.75;6235819;22;45268;-84
2022/12/21 07:42:16;;;;;;;;;5.67;4.00;;;;;9.50;100.00;100614.03;6238716;22;44762;-84
2022/12/21 07:45:17;;;;;;;;;;;;;;;;;;;;;
2022/12/21 07:47:43;;;;;;;;;4.00;4.00;;;;;9.53;100.00;100612.34;6257967;22;65216;-85
2022/12/21 07:50:19;;;;;;;;;6.67;4.00;;;;;9.59;100.00;100622.16;6237449;22;46817;-85
2022/12/21 07:56:16;;;;;;;;;7.00;6.67;;;;;9.97;100.00;100669.66;6269042;22;44714;-84
2022/12/21 07:58:42;;;;;;;;;7.33;3.33;;;;;9.99;100.00;100676.78;6238194;22;45710;-84
2022/12/21 08:01:14;;;;;;;;;5.00;4.00;;;;;10.02;100.00;100675.97;6237502;22;45233;-83
2022/12/21 08:04:00;;;;;;;;;4.00;4.00;;;;;9.85;100.00;100626.97;6238622;22;45503;-84
2022/12/21 08:06:26;;;;;;;;;4.67;4.33;;;;;9.89;100.00;100627.03;6240692;22;45279;-84
2022/12/21 08:08:52;;;;;;;;;5.00;4.00;;;;;10.17;100.00;100669.97;6242084;22;45220;-83
2022/12/21 08:11:19;;;;;;;;;5.33;4.67;;;;;10.06;100.00;100645.91;6238593;22;46762;-83
2022/12/21 08:13:48;;;;;;;;;9.67;5.33;;;;;10.00;100.00;100633.41;6240195;22;45252;-83
2022/12/21 08:16:17;;;;;;;;;4.00;3.33;;;;;10.00;100.00;100629.88;6241398;22;45366;-83
2022/12/21 08:18:49;;;;;;;;;3.00;3.00;;;;;9.99;100.00;100628.97;6237873;22;44825;-83
2022/12/21 08:21:19;;;;;;;;;3.00;3.00;;;;;10.05;100.00;100625.50;6236816;22;45461;-83
2022/12/21 08:24:03;;;;;;;;;2.00;0.00;;;;;10.18;100.00;100640.75;6236244;22;44704;-82
2022/12/21 08:29:55;;;;;;;;;2.00;2.00;;;;;10.29;100.00;100624.94;6266348;22;45396;-84
2022/12/21 08:32:26;;;;;;;;;7.00;3.00;;;;;10.40;100.00;100625.13;6238547;22;46700;-84
2022/12/21 08:34:57;;;;;;;;;7.33;5.00;;;;;10.29;100.00;100593.06;6233677;22;44757;-83
2022/12/21 08:37:23;;;;;;;;;4.33;4.00;;;;;10.32;100.00;100597.53;6234065;22;44808;-84
2022/12/21 08:39:52;;;;;;;;;6.33;5.67;;;;;10.61;100.00;100652.00;6235671;22;44860;-83
2022/12/21 08:42:18;;;;;;;;;2.00;2.00;;;;;10.60;100.00;100652.88;6234467;22;45269;-86
2022/12/21 08:44:43;;;;;;;;;5.00;5.00;;;;;10.60;100.00;100662.59;6231964;22;45243;-83
2022/12/21 08:50:31;;;;;;;;;3.00;3.00;;;;;10.57;100.00;100670.56;6234018;22;44847;-85
2022/12/21 08:52:57;;;;;;;;;3.67;3.67;;;;;10.45;100.00;100659.75;6236855;22;46486;-83
2022/12/21 08:56:05;;;;;;;;;3.00;3.00;;;;;10.57;100.00;100671.44;6237268;22;44760;-85
2022/12/21 08:58:44;;;;;;;;;;;;;;;;;;;;;
2022/12/21 09:01:16;;;;;;;;;3.00;3.00;;;;;10.44;100.00;100629.59;6144213;23;65150;-84
2022/12/21 09:03:48;;;;;;;;;2.00;2.00;;;;;10.38;100.00;100611.81;6143903;23;45330;-84
2022/12/21 09:06:17;;;;;;;;;5.00;3.67;;;;;10.68;100.00;100652.06;6143722;23;45277;-85
2022/12/21 09:08:46;;;;;;;;;3.33;3.00;;;;;10.55;100.00;100624.44;6139838;23;45468;-84
2022/12/21 09:11:38;;;;;;;;;3.00;3.00;;;;;10.71;100.00;100650.34;6138942;23;44858;-86
2022/12/21 09:14:07;;;;;;;;;3.33;2.67;;;;;10.66;100.00;100641.41;6142255;23;47914;-85
2022/12/21 09:16:38;;;;;;;;;1.50;1.50;;;;;10.39;100.00;100597.66;6115617;23;45279;-84
2022/12/21 09:19:05;;;;;;;;;2.00;2.00;;;;;10.52;100.00;100619.97;6143844;23;44781;-85
2022/12/21 09:21:42;;;;;;;;;1.33;1.00;;;;;10.77;100.00;100657.50;6115996;23;44819;-83
2022/12/21 09:24:11;;;;;;;;;5.67;4.67;;;;;10.77;100.00;100647.75;6115461;23;47224;-84
2022/12/21 09:27:10;;;;;;;;;7.67;4.33;;;;;10.81;100.00;100659.31;6143337;23;45367;-84
2022/12/21 09:29:55;;;;;;;;;4.00;4.00;;;;;10.90;100.00;100666.50;6161388;23;45424;-83
2022/12/21 09:32:21;;;;;;;;;7.00;4.33;;;;;10.87;100.00;100643.44;6145457;22;45397;-85
2022/12/21 09:34:46;;;;;;;;;3.33;3.33;;;;;11.06;100.00;100683.53;6230844;22;46872;-84
2022/12/21 09:37:15;;;;;;;;;4.00;4.00;;;;;10.96;100.00;100639.97;6231012;22;45772;-84
2022/12/21 09:39:44;;;;;;;;;4.00;4.00;;;;;11.13;100.00;100651.69;6233532;22;45508;-85
2022/12/21 09:42:58;;;;;;;;;5.00;5.00;;;;;11.13;100.00;100666.75;6230788;22;44929;-85
2022/12/21 09:45:55;;;;;;;;;6.33;6.33;;;;;10.95;100.00;100630.22;6228038;22;45359;-85
2022/12/21 09:48:59;;;;;;;;;7.00;5.67;;;;;11.20;100.00;100679.25;6232236;22;45694;-84
2022/12/21 09:52:05;;;;;;;;;3.67;3.00;;;;;11.04;100.00;100662.22;6233350;22;45215;-85
2022/12/21 09:54:38;;;;;;;;;8.33;7.00;;;;;11.25;100.00;100698.84;6230084;22;44850;-86
2022/12/21 09:57:06;;;;;;;;;7.67;5.33;;;;;11.11;100.00;100657.84;6232719;22;45245;-85
2022/12/21 09:59:33;;;;;;;;;3.67;3.67;;;;;11.26;100.00;100676.66;6232208;22;45340;-83
2022/12/21 10:02:10;;;;;;;;;5.00;5.00;;;;;11.41;100.00;100686.56;6236336;22;44712;-85
2022/12/21 10:05:18;;;;;;;;;7.33;7.33;;;;;11.48;100.00;100692.84;6230928;22;45333;-83
2022/12/21 10:08:18;;;;;;;;;11.00;9.00;;;;;11.63;100.00;100711.63;6231674;22;47095;-82
2022/12/21 10:10:52;;;;;;;;;8.00;5.00;;;;;11.66;100.00;100708.13;6228751;22;44717;-82
2022/12/21 10:13:47;;;;;;;;;7.00;6.00;;;;;11.74;100.00;100703.75;6227954;22;44720;-83
2022/12/21 10:16:43;;;;;;;;;5.00;5.00;;;;;11.79;100.00;100696.69;6228396;22;45460;-83
2022/12/21 10:22:53;;;;;;;;;5.00;5.00;;;;;11.66;100.00;100660.19;6230836;22;45319;-84
2022/12/21 10:25:47;;;;;;;;;9.00;9.00;;;;;11.44;100.00;100624.47;6232045;22;45322;-83
2022/12/21 10:28:40;;;;;;;;;12.00;11.00;;;;;11.70;100.00;100676.19;6229452;22;44925;-83
2022/12/21 10:31:19;;;;;;;;;6.33;6.33;;;;;11.64;100.00;100640.63;6229772;22;45440;-84
2022/12/21 10:33:59;;;;;;;;;8.33;6.33;;;;;11.74;100.00;100667.34;6226553;22;45394;-84
2022/12/21 10:36:39;;;;;;;;;5.00;5.00;;;;;11.77;100.00;100656.69;6208763;22;45429;-82
2022/12/21 10:39:10;;;;;;;;;10.33;10.33;;;;;11.64;100.00;100630.84;6207828;22;45340;-83
2022/12/21 10:41:44;;;;;;;;;5.00;5.00;;;;;11.73;100.00;100638.91;6232343;22;45543;-82
2022/12/21 10:44:14;;;;;;;;;5.67;4.00;;;;;11.86;100.00;100650.56;6264079;22;45231;-84
2022/12/21 10:46:41;;;;;;;;;5.00;5.00;;;;;11.86;100.00;100644.34;6213498;22;45262;-83
2022/12/21 10:49:39;;;;;;;;;5.67;5.67;;;;;11.79;100.00;100633.63;6244291;22;45259;-80
2022/12/21 10:53:02;;;;;;;;;5.00;4.00;;;;;11.82;100.00;100638.09;6233339;22;45491;-84
2022/12/21 10:55:36;;;;;;;;;6.33;4.00;;;;;11.85;100.00;100632.78;6215574;22;44766;-82
2022/12/21 11:01:52;;;;;;;;;5.00;5.00;;;;;11.97;100.00;100610.69;6266941;22;45141;-85
2022/12/21 11:04:59;;;;;;;;;7.75;4.00;;;;;12.06;100.00;100600.09;6256957;22;46928;-85
2022/12/21 11:07:33;;;;;;;;;7.25;7.25;;;;;12.16;100.00;100606.38;6114975;23;44833;-84
2022/12/21 11:10:01;;;;;;;;;7.50;7.00;;;;;12.11;100.00;100587.66;6115764;23;44735;-83
2022/12/21 11:13:00;;;;;;;;;5.75;2.50;;;;;12.21;100.00;100586.81;6140742;23;44893;-83
2022/12/21 11:15:27;;;;;;;;;6.25;5.75;;;;;12.14;100.00;100565.44;6138569;23;45215;-82
2022/12/21 11:17:55;;;;;;;;;6.75;6.75;;;;;12.17;100.00;100552.16;6138976;23;45524;-84
2022/12/21 11:20:24;;;;;;;;;7.00;3.25;;;;;12.45;100.00;100574.50;6139556;23;45437;-84
2022/12/21 11:22:56;;;;;;;;;4.00;4.00;;;;;12.58;100.00;100572.75;6137058;23;45486;-84
2022/12/21 11:25:28;;;;;;;;;3.00;3.00;;;;;12.72;100.00;100580.78;6138052;23;45565;-85
2022/12/21 11:28:00;;;;;;;;;8.33;6.00;;;;;12.82;100.00;100579.91;6141385;23;44749;-83
2022/12/21 11:30:35;;;;;;;;;7.50;7.50;;;;;12.87;100.00;100566.63;6236438;22;45273;-85
2022/12/21 11:33:07;;;;;;;;;10.25;7.50;;;;;13.06;100.00;100578.19;6260811;22;45378;-83
2022/12/21 11:35:34;;;;;;;;;5.75;5.00;;;;;12.82;100.00;100529.22;6264127;22;45316;-84
2022/12/21 11:38:10;;;;;;;;;10.25;7.50;;;;;13.04;100.00;100558.63;6264800;22;44851;-83
2022/12/21 11:41:05;;;;;;;;;7.33;6.00;;;;;12.75;100.00;100522.09;6266861;22;45413;-84
2022/12/21 11:44:17;;;;;;;;;7.25;6.00;;;;;12.92;100.00;100555.03;6265259;22;45309;-84
2022/12/21 11:47:05;;;;;;;;;11.00;10.00;;;;;12.93;100.00;100550.59;6262488;22;45294;-84
2022/12/21 11:50:00;;;;;;;;;10.00;6.00;;;;;12.66;100.00;100511.41;6262119;22;45296;-83
2022/12/21 11:52:48;;;;;;;;;5.33;5.33;;;;;12.78;100.00;100522.09;6263782;22;44846;-85
2022/12/21 11:55:23;;;;;;;;;9.33;9.00;;;;;12.82;100.00;100537.22;6261832;22;44815;-84
2022/12/21 11:57:58;;;;;;;;;12.00;8.67;;;;;12.83;100.00;100531.00;6257172;22;45404;-83
2022/12/21 12:01:21;;;;;;;;;9.00;6.25;;;;;12.89;100.00;100535.47;6258784;22;45238;-83
2022/12/21 12:04:22;;;;;;;;;10.25;6.25;;;;;12.90;100.00;100526.56;6170461;23;45387;-84
2022/12/21 12:07:15;;;;;;;;;10.33;9.33;;;;;12.95;100.00;100520.34;6169197;23;45405;-83
2022/12/21 12:13:43;;;;;;;;;9.50;6.50;;;;;12.94;100.00;100517.66;6077973;23;45391;-83
2022/12/21 12:16:27;;;;;;;;;8.00;8.00;;;;;12.92;100.00;100509.66;6077751;23;45617;-84
2022/12/21 12:19:33;;;;;;;;;7.75;7.75;;;;;12.90;100.00;100500.75;6054442;23;45303;-84
2022/12/21 12:22:22;;;;;;;;;12.75;11.00;;;;;12.91;100.00;100481.19;6080236;23;45627;-83
2022/12/21 12:29:19;;;;;;;;;10.75;10.00;;;;;12.86;100.00;100496.31;6084340;23;44746;-85
2022/12/21 12:32:00;;;;;;;;;6.50;6.25;;;;;12.90;100.00;100487.41;6005772;23;45432;-84
2022/12/21 12:34:45;;;;;;;;;6.00;6.00;;;;;12.94;100.00;100481.19;6021327;23;45533;-85
2022/12/21 12:37:37;;;;;;;;;4.25;4.25;;;;;12.99;100.00;100468.75;6021288;23;44796;-84
2022/12/21 12:40:52;;;;;;;;;5.75;4.75;;;;;13.10;100.00;100465.16;6000148;23;44828;-84
2022/12/21 12:43:58;;;;;;;;;4.33;4.33;;;;;13.13;100.00;100438.47;6057808;23;45291;-83
2022/12/21 12:46:24;;;;;;;;;4.50;4.50;;;;;13.17;100.00;100440.25;6168271;23;46617;-82